sensor_id;sensor_type;location;lat;lon;timestamp;P1;durP1;ratioP1;P2;durP2;ratioP2
15936;SDS011;9163;48.818;8.976;2022-12-18T00:01:00;98.37;;;53.43;;
15936;SDS011;9163;48.818;8.976;2022-12-18T00:03:31;91.27;;;52.07;;
15936;SDS011;9163;48.818;8.976;2022-12-18T00:06:00;103.00;;;55.83;;
15936;SDS011;9163;48.818;8.976;2022-12-18T00:08:28;100.83;;;56.30;;
15936;SDS011;9163;48.818;8.976;2022-12-18T00:10:55;94.13;;;52.50;;
15936;SDS011;9163;48.818;8.976;2022-12-18T00:13:29;98.27;;;55.47;;
15936;SDS011;9163;48.818;8.976;2022-12-18T00:16:00;92.13;;;53.00;;
15936;SDS011;9163;48.818;8.976;2022-12-18T00:18:28;100.10;;;54.93;;
15936;SDS011;9163;48.818;8.976;2022-12-18T00:20:58;93.40;;;53.30;;
15936;SDS011;9163;48.818;8.976;2022-12-18T00:23:27;98.20;;;54.40;;
15936;SDS011;9163;48.818;8.976;2022-12-18T00:25:55;98.33;;;53.90;;
15936;SDS011;9163;48.818;8.976;2022-12-18T00:28:25;95.70;;;52.50;;
15936;SDS011;9163;48.818;8.976;2022-12-18T00:30:58;91.17;;;51.33;;
15936;SDS011;9163;48.818;8.976;2022-12-18T00:33:27;88.60;;;51.33;;
15936;SDS011;9163;48.818;8.976;2022-12-18T00:35:54;94.00;;;53.00;;
15936;SDS011;9163;48.818;8.976;2022-12-18T00:38:21;92.03;;;53.50;;
15936;SDS011;9163;48.818;8.976;2022-12-18T00:40:49;92.27;;;53.77;;
15936;SDS011;9163;48.818;8.976;2022-12-18T00:43:16;98.80;;;55.43;;
15936;SDS011;9163;48.818;8.976;2022-12-18T00:45:43;91.80;;;52.93;;
15936;SDS011;9163;48.818;8.976;2022-12-18T00:48:10;90.10;;;53.33;;
15936;SDS011;9163;48.818;8.976;2022-12-18T00:50:37;94.73;;;52.30;;
15936;SDS011;9163;48.818;8.976;2022-12-18T00:53:04;94.50;;;52.93;;
15936;SDS011;9163;48.818;8.976;2022-12-18T00:55:31;85.23;;;50.27;;
15936;SDS011;9163;48.818;8.976;2022-12-18T00:58:00;91.77;;;51.13;;
15936;SDS011;9163;48.818;8.976;2022-12-18T01:00:27;89.70;;;52.30;;
15936;SDS011;9163;48.818;8.976;2022-12-18T01:02:54;87.97;;;49.93;;
15936;SDS011;9163;48.818;8.976;2022-12-18T01:05:21;88.23;;;51.17;;
15936;SDS011;9163;48.818;8.976;2022-12-18T01:07:48;81.27;;;48.67;;
15936;SDS011;9163;48.818;8.976;2022-12-18T01:10:16;82.33;;;48.07;;
15936;SDS011;9163;48.818;8.976;2022-12-18T01:12:43;82.07;;;48.00;;
15936;SDS011;9163;48.818;8.976;2022-12-18T01:15:12;79.13;;;46.83;;
15936;SDS011;9163;48.818;8.976;2022-12-18T01:17:41;80.03;;;47.50;;
15936;SDS011;9163;48.818;8.976;2022-12-18T01:20:09;82.27;;;46.57;;
15936;SDS011;9163;48.818;8.976;2022-12-18T01:22:38;82.33;;;47.73;;
15936;SDS011;9163;48.818;8.976;2022-12-18T01:25:06;85.50;;;49.00;;
15936;SDS011;9163;48.818;8.976;2022-12-18T01:27:34;77.10;;;46.20;;
15936;SDS011;9163;48.818;8.976;2022-12-18T01:30:01;86.70;;;49.53;;
15936;SDS011;9163;48.818;8.976;2022-12-18T01:32:31;77.53;;;44.73;;
15936;SDS011;9163;48.818;8.976;2022-12-18T01:34:58;77.43;;;46.20;;
15936;SDS011;9163;48.818;8.976;2022-12-18T01:37:25;75.87;;;44.50;;
15936;SDS011;9163;48.818;8.976;2022-12-18T01:39:52;76.23;;;44.57;;
15936;SDS011;9163;48.818;8.976;2022-12-18T01:42:21;72.00;;;44.03;;
15936;SDS011;9163;48.818;8.976;2022-12-18T01:44:53;75.90;;;44.97;;
15936;SDS011;9163;48.818;8.976;2022-12-18T01:47:27;72.43;;;42.97;;
15936;SDS011;9163;48.818;8.976;2022-12-18T01:50:00;71.73;;;44.10;;
15936;SDS011;9163;48.818;8.976;2022-12-18T01:52:30;73.73;;;44.73;;
15936;SDS011;9163;48.818;8.976;2022-12-18T01:54:59;78.90;;;45.20;;
15936;SDS011;9163;48.818;8.976;2022-12-18T01:57:28;80.33;;;46.47;;
15936;SDS011;9163;48.818;8.976;2022-12-18T01:59:57;76.87;;;45.57;;
15936;SDS011;9163;48.818;8.976;2022-12-18T02:02:27;81.47;;;47.70;;
15936;SDS011;9163;48.818;8.976;2022-12-18T02:04:57;78.27;;;48.17;;
15936;SDS011;9163;48.818;8.976;2022-12-18T02:07:26;83.27;;;47.57;;
15936;SDS011;9163;48.818;8.976;2022-12-18T02:10:02;79.83;;;45.30;;
15936;SDS011;9163;48.818;8.976;2022-12-18T02:12:34;80.63;;;47.53;;
15936;SDS011;9163;48.818;8.976;2022-12-18T02:15:10;80.10;;;46.97;;
15936;SDS011;9163;48.818;8.976;2022-12-18T02:17:43;76.00;;;45.90;;
15936;SDS011;9163;48.818;8.976;2022-12-18T02:20:16;76.77;;;44.93;;
15936;SDS011;9163;48.818;8.976;2022-12-18T02:22:49;75.23;;;44.40;;
15936;SDS011;9163;48.818;8.976;2022-12-18T02:28:30;69.63;;;42.40;;
15936;SDS011;9163;48.818;8.976;2022-12-18T02:31:01;70.80;;;42.90;;
15936;SDS011;9163;48.818;8.976;2022-12-18T02:33:31;73.97;;;43.47;;
15936;SDS011;9163;48.818;8.976;2022-12-18T02:35:59;76.83;;;43.60;;
15936;SDS011;9163;48.818;8.976;2022-12-18T02:38:28;71.13;;;43.13;;
15936;SDS011;9163;48.818;8.976;2022-12-18T02:40:57;67.33;;;39.87;;
15936;SDS011;9163;48.818;8.976;2022-12-18T02:43:26;64.93;;;38.73;;
15936;SDS011;9163;48.818;8.976;2022-12-18T02:45:54;64.70;;;38.87;;
15936;SDS011;9163;48.818;8.976;2022-12-18T02:48:24;60.73;;;37.87;;
15936;SDS011;9163;48.818;8.976;2022-12-18T02:50:56;58.87;;;37.40;;
15936;SDS011;9163;48.818;8.976;2022-12-18T02:53:32;61.23;;;38.27;;
15936;SDS011;9163;48.818;8.976;2022-12-18T02:56:05;58.90;;;37.97;;
15936;SDS011;9163;48.818;8.976;2022-12-18T02:58:40;69.90;;;39.40;;
15936;SDS011;9163;48.818;8.976;2022-12-18T03:01:13;61.63;;;38.07;;
15936;SDS011;9163;48.818;8.976;2022-12-18T03:03:45;61.53;;;38.03;;
15936;SDS011;9163;48.818;8.976;2022-12-18T03:06:18;61.07;;;38.07;;
15936;SDS011;9163;48.818;8.976;2022-12-18T03:08:51;66.00;;;39.73;;
15936;SDS011;9163;48.818;8.976;2022-12-18T03:11:25;62.30;;;38.60;;
15936;SDS011;9163;48.818;8.976;2022-12-18T03:14:15;62.00;;;37.97;;
15936;SDS011;9163;48.818;8.976;2022-12-18T03:16:44;58.10;;;37.30;;
15936;SDS011;9163;48.818;8.976;2022-12-18T03:19:14;60.73;;;37.60;;
15936;SDS011;9163;48.818;8.976;2022-12-18T03:21:45;60.90;;;37.60;;
15936;SDS011;9163;48.818;8.976;2022-12-18T03:24:14;59.20;;;36.00;;
15936;SDS011;9163;48.818;8.976;2022-12-18T03:26:43;52.67;;;35.47;;
15936;SDS011;9163;48.818;8.976;2022-12-18T03:29:15;53.47;;;35.23;;
15936;SDS011;9163;48.818;8.976;2022-12-18T03:31:47;60.47;;;37.77;;
15936;SDS011;9163;48.818;8.976;2022-12-18T03:34:19;59.87;;;37.33;;
15936;SDS011;9163;48.818;8.976;2022-12-18T03:36:51;62.03;;;38.10;;
15936;SDS011;9163;48.818;8.976;2022-12-18T03:39:19;57.90;;;37.47;;
15936;SDS011;9163;48.818;8.976;2022-12-18T03:41:47;62.87;;;38.20;;
15936;SDS011;9163;48.818;8.976;2022-12-18T03:44:26;65.53;;;39.43;;
15936;SDS011;9163;48.818;8.976;2022-12-18T03:46:58;62.33;;;38.83;;
15936;SDS011;9163;48.818;8.976;2022-12-18T03:49:32;67.67;;;40.03;;
15936;SDS011;9163;48.818;8.976;2022-12-18T03:52:03;64.27;;;39.17;;
15936;SDS011;9163;48.818;8.976;2022-12-18T03:54:33;70.50;;;42.10;;
15936;SDS011;9163;48.818;8.976;2022-12-18T03:57:03;72.17;;;42.80;;
15936;SDS011;9163;48.818;8.976;2022-12-18T03:59:34;73.10;;;43.47;;
15936;SDS011;9163;48.818;8.976;2022-12-18T04:02:03;73.23;;;44.13;;
15936;SDS011;9163;48.818;8.976;2022-12-18T04:04:33;73.03;;;44.47;;
15936;SDS011;9163;48.818;8.976;2022-12-18T04:07:02;76.83;;;45.27;;
15936;SDS011;9163;48.818;8.976;2022-12-18T04:09:30;74.87;;;43.87;;
15936;SDS011;9163;48.818;8.976;2022-12-18T04:11:59;76.50;;;44.73;;
15936;SDS011;9163;48.818;8.976;2022-12-18T04:14:26;71.63;;;43.77;;
15936;SDS011;9163;48.818;8.976;2022-12-18T04:16:55;71.90;;;43.43;;
15936;SDS011;9163;48.818;8.976;2022-12-18T04:19:22;73.50;;;42.23;;
15936;SDS011;9163;48.818;8.976;2022-12-18T04:21:49;73.90;;;42.87;;
15936;SDS011;9163;48.818;8.976;2022-12-18T04:24:16;68.70;;;40.73;;
15936;SDS011;9163;48.818;8.976;2022-12-18T04:26:43;70.63;;;41.30;;
15936;SDS011;9163;48.818;8.976;2022-12-18T04:29:10;75.83;;;42.67;;
15936;SDS011;9163;48.818;8.976;2022-12-18T04:31:38;73.30;;;41.83;;
15936;SDS011;9163;48.818;8.976;2022-12-18T04:34:06;73.77;;;41.10;;
15936;SDS011;9163;48.818;8.976;2022-12-18T04:36:33;68.33;;;40.17;;
15936;SDS011;9163;48.818;8.976;2022-12-18T04:39:01;70.73;;;40.03;;
15936;SDS011;9163;48.818;8.976;2022-12-18T04:41:28;67.40;;;39.87;;
15936;SDS011;9163;48.818;8.976;2022-12-18T04:43:55;74.43;;;42.77;;
15936;SDS011;9163;48.818;8.976;2022-12-18T04:46:22;69.47;;;40.20;;
15936;SDS011;9163;48.818;8.976;2022-12-18T04:48:49;69.20;;;40.73;;
15936;SDS011;9163;48.818;8.976;2022-12-18T04:51:18;74.23;;;41.13;;
15936;SDS011;9163;48.818;8.976;2022-12-18T04:53:45;66.93;;;38.60;;
15936;SDS011;9163;48.818;8.976;2022-12-18T04:56:13;70.40;;;39.60;;
15936;SDS011;9163;48.818;8.976;2022-12-18T04:58:41;72.97;;;39.33;;
15936;SDS011;9163;48.818;8.976;2022-12-18T05:01:10;73.53;;;39.37;;
15936;SDS011;9163;48.818;8.976;2022-12-18T05:03:38;72.60;;;40.10;;
15936;SDS011;9163;48.818;8.976;2022-12-18T05:06:06;79.30;;;40.90;;
15936;SDS011;9163;48.818;8.976;2022-12-18T05:08:35;76.03;;;41.17;;
15936;SDS011;9163;48.818;8.976;2022-12-18T05:11:03;73.63;;;39.97;;
15936;SDS011;9163;48.818;8.976;2022-12-18T05:13:32;74.67;;;39.70;;
15936;SDS011;9163;48.818;8.976;2022-12-18T05:15:59;81.97;;;40.73;;
15936;SDS011;9163;48.818;8.976;2022-12-18T05:18:27;80.40;;;40.43;;
15936;SDS011;9163;48.818;8.976;2022-12-18T05:20:55;90.50;;;43.47;;
15936;SDS011;9163;48.818;8.976;2022-12-18T05:23:23;93.60;;;44.53;;
15936;SDS011;9163;48.818;8.976;2022-12-18T05:25:52;135.80;;;51.00;;
15936;SDS011;9163;48.818;8.976;2022-12-18T05:28:21;122.17;;;50.50;;
15936;SDS011;9163;48.818;8.976;2022-12-18T05:30:49;170.77;;;54.97;;
15936;SDS011;9163;48.818;8.976;2022-12-18T05:33:16;112.70;;;46.57;;
15936;SDS011;9163;48.818;8.976;2022-12-18T05:35:44;165.07;;;55.50;;
15936;SDS011;9163;48.818;8.976;2022-12-18T05:38:16;199.87;;;58.20;;
15936;SDS011;9163;48.818;8.976;2022-12-18T05:40:43;185.40;;;58.53;;
15936;SDS011;9163;48.818;8.976;2022-12-18T05:43:12;139.43;;;52.67;;
15936;SDS011;9163;48.818;8.976;2022-12-18T05:45:39;211.97;;;58.10;;
15936;SDS011;9163;48.818;8.976;2022-12-18T05:48:07;240.73;;;64.47;;
15936;SDS011;9163;48.818;8.976;2022-12-18T05:50:37;218.30;;;58.03;;
15936;SDS011;9163;48.818;8.976;2022-12-18T05:53:06;191.87;;;57.63;;
15936;SDS011;9163;48.818;8.976;2022-12-18T05:55:33;230.00;;;58.53;;
15936;SDS011;9163;48.818;8.976;2022-12-18T05:58:01;199.47;;;59.10;;
15936;SDS011;9163;48.818;8.976;2022-12-18T06:00:30;180.43;;;58.80;;
15936;SDS011;9163;48.818;8.976;2022-12-18T06:02:58;170.07;;;55.33;;
15936;SDS011;9163;48.818;8.976;2022-12-18T06:05:26;215.27;;;61.40;;
15936;SDS011;9163;48.818;8.976;2022-12-18T06:07:53;151.07;;;55.63;;
15936;SDS011;9163;48.818;8.976;2022-12-18T06:10:20;344.93;;;71.23;;
15936;SDS011;9163;48.818;8.976;2022-12-18T06:12:47;175.53;;;55.67;;
15936;SDS011;9163;48.818;8.976;2022-12-18T06:15:15;174.83;;;58.03;;
15936;SDS011;9163;48.818;8.976;2022-12-18T06:17:43;157.00;;;55.23;;
15936;SDS011;9163;48.818;8.976;2022-12-18T06:20:10;148.67;;;56.03;;
15936;SDS011;9163;48.818;8.976;2022-12-18T06:22:37;140.17;;;56.03;;
15936;SDS011;9163;48.818;8.976;2022-12-18T06:25:05;129.43;;;52.03;;
15936;SDS011;9163;48.818;8.976;2022-12-18T06:27:33;127.47;;;51.13;;
15936;SDS011;9163;48.818;8.976;2022-12-18T06:30:00;123.70;;;50.37;;
15936;SDS011;9163;48.818;8.976;2022-12-18T06:32:27;122.73;;;49.73;;
15936;SDS011;9163;48.818;8.976;2022-12-18T06:34:56;129.70;;;52.37;;
15936;SDS011;9163;48.818;8.976;2022-12-18T06:37:23;117.03;;;49.50;;
15936;SDS011;9163;48.818;8.976;2022-12-18T06:39:51;128.13;;;52.03;;
15936;SDS011;9163;48.818;8.976;2022-12-18T06:42:18;126.93;;;52.67;;
15936;SDS011;9163;48.818;8.976;2022-12-18T06:44:45;122.47;;;51.03;;
15936;SDS011;9163;48.818;8.976;2022-12-18T06:47:13;111.30;;;48.37;;
15936;SDS011;9163;48.818;8.976;2022-12-18T06:49:40;104.93;;;46.63;;
15936;SDS011;9163;48.818;8.976;2022-12-18T06:52:08;99.97;;;44.83;;
15936;SDS011;9163;48.818;8.976;2022-12-18T06:54:36;90.53;;;44.33;;
15936;SDS011;9163;48.818;8.976;2022-12-18T06:57:03;87.47;;;41.90;;
15936;SDS011;9163;48.818;8.976;2022-12-18T06:59:30;79.83;;;41.23;;
15936;SDS011;9163;48.818;8.976;2022-12-18T07:01:57;70.70;;;38.63;;
15936;SDS011;9163;48.818;8.976;2022-12-18T07:04:27;72.90;;;40.33;;
15936;SDS011;9163;48.818;8.976;2022-12-18T07:06:55;74.47;;;39.70;;
15936;SDS011;9163;48.818;8.976;2022-12-18T07:09:24;70.73;;;37.63;;
15936;SDS011;9163;48.818;8.976;2022-12-18T07:11:51;73.77;;;37.83;;
15936;SDS011;9163;48.818;8.976;2022-12-18T07:14:18;65.53;;;37.27;;
15936;SDS011;9163;48.818;8.976;2022-12-18T07:16:46;70.87;;;39.23;;
15936;SDS011;9163;48.818;8.976;2022-12-18T07:19:13;69.03;;;37.77;;
15936;SDS011;9163;48.818;8.976;2022-12-18T07:21:40;71.20;;;37.70;;
15936;SDS011;9163;48.818;8.976;2022-12-18T07:24:07;67.90;;;36.87;;
15936;SDS011;9163;48.818;8.976;2022-12-18T07:26:36;69.17;;;36.83;;
15936;SDS011;9163;48.818;8.976;2022-12-18T07:29:03;72.63;;;37.10;;
15936;SDS011;9163;48.818;8.976;2022-12-18T07:31:30;64.17;;;35.03;;
15936;SDS011;9163;48.818;8.976;2022-12-18T07:33:57;63.47;;;35.03;;
15936;SDS011;9163;48.818;8.976;2022-12-18T07:36:24;59.07;;;33.70;;
15936;SDS011;9163;48.818;8.976;2022-12-18T07:38:52;66.53;;;34.20;;
15936;SDS011;9163;48.818;8.976;2022-12-18T07:41:19;59.83;;;33.70;;
15936;SDS011;9163;48.818;8.976;2022-12-18T07:43:48;56.37;;;33.53;;
15936;SDS011;9163;48.818;8.976;2022-12-18T07:46:15;53.80;;;31.13;;
15936;SDS011;9163;48.818;8.976;2022-12-18T07:48:42;49.63;;;28.17;;
15936;SDS011;9163;48.818;8.976;2022-12-18T07:51:10;45.00;;;26.50;;
15936;SDS011;9163;48.818;8.976;2022-12-18T07:53:37;45.33;;;27.43;;
15936;SDS011;9163;48.818;8.976;2022-12-18T07:56:06;40.90;;;23.93;;
15936;SDS011;9163;48.818;8.976;2022-12-18T07:58:34;39.13;;;23.07;;
15936;SDS011;9163;48.818;8.976;2022-12-18T08:01:03;38.93;;;24.10;;
15936;SDS011;9163;48.818;8.976;2022-12-18T08:03:32;37.93;;;22.23;;
15936;SDS011;9163;48.818;8.976;2022-12-18T08:05:59;37.87;;;21.87;;
15936;SDS011;9163;48.818;8.976;2022-12-18T08:08:27;36.47;;;22.10;;
15936;SDS011;9163;48.818;8.976;2022-12-18T08:10:54;36.53;;;22.80;;
15936;SDS011;9163;48.818;8.976;2022-12-18T08:13:21;37.47;;;21.90;;
15936;SDS011;9163;48.818;8.976;2022-12-18T08:15:55;38.43;;;22.27;;
15936;SDS011;9163;48.818;8.976;2022-12-18T08:18:24;42.07;;;24.17;;
15936;SDS011;9163;48.818;8.976;2022-12-18T08:20:52;39.30;;;21.33;;
15936;SDS011;9163;48.818;8.976;2022-12-18T08:23:19;38.30;;;21.33;;
15936;SDS011;9163;48.818;8.976;2022-12-18T08:25:49;38.07;;;21.00;;
15936;SDS011;9163;48.818;8.976;2022-12-18T08:28:16;36.90;;;20.00;;
15936;SDS011;9163;48.818;8.976;2022-12-18T08:30:44;33.77;;;18.90;;
15936;SDS011;9163;48.818;8.976;2022-12-18T08:33:11;33.67;;;18.37;;
15936;SDS011;9163;48.818;8.976;2022-12-18T08:35:40;38.10;;;20.20;;
15936;SDS011;9163;48.818;8.976;2022-12-18T08:38:07;38.63;;;20.60;;
15936;SDS011;9163;48.818;8.976;2022-12-18T08:40:34;43.87;;;24.50;;
15936;SDS011;9163;48.818;8.976;2022-12-18T08:43:01;35.17;;;20.43;;
15936;SDS011;9163;48.818;8.976;2022-12-18T08:45:46;40.70;;;23.20;;
15936;SDS011;9163;48.818;8.976;2022-12-18T08:48:13;36.77;;;21.07;;
15936;SDS011;9163;48.818;8.976;2022-12-18T08:50:42;36.90;;;21.13;;
15936;SDS011;9163;48.818;8.976;2022-12-18T08:53:09;36.10;;;21.13;;
15936;SDS011;9163;48.818;8.976;2022-12-18T08:55:36;32.70;;;19.40;;
15936;SDS011;9163;48.818;8.976;2022-12-18T08:58:03;33.20;;;18.60;;
15936;SDS011;9163;48.818;8.976;2022-12-18T09:00:30;30.03;;;17.13;;
15936;SDS011;9163;48.818;8.976;2022-12-18T09:02:58;32.53;;;18.53;;
15936;SDS011;9163;48.818;8.976;2022-12-18T09:05:25;31.50;;;18.70;;
15936;SDS011;9163;48.818;8.976;2022-12-18T09:07:54;29.07;;;17.63;;
15936;SDS011;9163;48.818;8.976;2022-12-18T09:10:21;31.73;;;17.90;;
15936;SDS011;9163;48.818;8.976;2022-12-18T09:12:48;29.47;;;17.47;;
15936;SDS011;9163;48.818;8.976;2022-12-18T09:15:16;32.03;;;18.97;;
15936;SDS011;9163;48.818;8.976;2022-12-18T09:17:43;28.73;;;17.00;;
15936;SDS011;9163;48.818;8.976;2022-12-18T09:20:10;29.50;;;18.67;;
15936;SDS011;9163;48.818;8.976;2022-12-18T09:22:37;31.70;;;18.83;;
15936;SDS011;9163;48.818;8.976;2022-12-18T09:25:06;30.70;;;18.80;;
15936;SDS011;9163;48.818;8.976;2022-12-18T09:27:34;31.63;;;18.67;;
15936;SDS011;9163;48.818;8.976;2022-12-18T09:30:01;29.77;;;18.20;;
15936;SDS011;9163;48.818;8.976;2022-12-18T09:32:29;29.33;;;18.57;;
15936;SDS011;9163;48.818;8.976;2022-12-18T09:34:56;30.63;;;19.20;;
15936;SDS011;9163;48.818;8.976;2022-12-18T09:37:23;29.50;;;17.33;;
15936;SDS011;9163;48.818;8.976;2022-12-18T09:39:50;27.43;;;17.63;;
15936;SDS011;9163;48.818;8.976;2022-12-18T09:42:19;33.00;;;19.53;;
15936;SDS011;9163;48.818;8.976;2022-12-18T09:44:49;32.00;;;19.70;;
15936;SDS011;9163;48.818;8.976;2022-12-18T09:47:19;30.30;;;19.40;;
15936;SDS011;9163;48.818;8.976;2022-12-18T09:49:52;31.03;;;19.70;;
15936;SDS011;9163;48.818;8.976;2022-12-18T09:52:23;28.13;;;18.10;;
15936;SDS011;9163;48.818;8.976;2022-12-18T09:54:53;28.27;;;18.43;;
15936;SDS011;9163;48.818;8.976;2022-12-18T09:57:24;29.73;;;18.63;;
15936;SDS011;9163;48.818;8.976;2022-12-18T09:59:53;33.03;;;18.70;;
15936;SDS011;9163;48.818;8.976;2022-12-18T10:02:25;29.73;;;18.73;;
15936;SDS011;9163;48.818;8.976;2022-12-18T10:04:56;30.97;;;19.80;;
15936;SDS011;9163;48.818;8.976;2022-12-18T10:07:37;30.97;;;18.80;;
15936;SDS011;9163;48.818;8.976;2022-12-18T10:10:13;30.47;;;18.23;;
15936;SDS011;9163;48.818;8.976;2022-12-18T10:12:48;25.27;;;17.70;;
15936;SDS011;9163;48.818;8.976;2022-12-18T10:15:22;28.40;;;18.17;;
15936;SDS011;9163;48.818;8.976;2022-12-18T10:17:56;28.13;;;18.00;;
15936;SDS011;9163;48.818;8.976;2022-12-18T10:20:30;27.17;;;17.83;;
15936;SDS011;9163;48.818;8.976;2022-12-18T10:23:08;27.73;;;18.03;;
15936;SDS011;9163;48.818;8.976;2022-12-18T10:25:50;26.23;;;17.40;;
15936;SDS011;9163;48.818;8.976;2022-12-18T10:28:23;30.37;;;18.70;;
15936;SDS011;9163;48.818;8.976;2022-12-18T10:30:51;28.20;;;18.37;;
15936;SDS011;9163;48.818;8.976;2022-12-18T10:33:19;27.07;;;16.77;;
15936;SDS011;9163;48.818;8.976;2022-12-18T10:35:49;27.60;;;17.87;;
15936;SDS011;9163;48.818;8.976;2022-12-18T10:38:21;25.73;;;16.63;;
15936;SDS011;9163;48.818;8.976;2022-12-18T10:40:51;28.00;;;17.23;;
15936;SDS011;9163;48.818;8.976;2022-12-18T10:43:20;28.20;;;17.43;;
15936;SDS011;9163;48.818;8.976;2022-12-18T10:46:00;29.80;;;17.73;;
15936;SDS011;9163;48.818;8.976;2022-12-18T10:48:39;28.63;;;17.07;;
15936;SDS011;9163;48.818;8.976;2022-12-18T10:51:19;28.93;;;17.00;;
15936;SDS011;9163;48.818;8.976;2022-12-18T10:53:51;26.23;;;16.83;;
15936;SDS011;9163;48.818;8.976;2022-12-18T10:56:21;28.13;;;16.57;;
15936;SDS011;9163;48.818;8.976;2022-12-18T10:58:56;29.10;;;17.07;;
15936;SDS011;9163;48.818;8.976;2022-12-18T11:01:26;26.67;;;17.27;;
15936;SDS011;9163;48.818;8.976;2022-12-18T11:04:01;25.73;;;16.73;;
15936;SDS011;9163;48.818;8.976;2022-12-18T11:06:35;26.50;;;17.50;;
15936;SDS011;9163;48.818;8.976;2022-12-18T11:09:21;29.17;;;18.10;;
15936;SDS011;9163;48.818;8.976;2022-12-18T11:11:49;28.40;;;17.30;;
15936;SDS011;9163;48.818;8.976;2022-12-18T11:14:21;26.60;;;16.50;;
15936;SDS011;9163;48.818;8.976;2022-12-18T11:16:50;29.50;;;17.50;;
15936;SDS011;9163;48.818;8.976;2022-12-18T11:19:20;29.53;;;17.83;;
15936;SDS011;9163;48.818;8.976;2022-12-18T11:21:52;26.47;;;16.77;;
15936;SDS011;9163;48.818;8.976;2022-12-18T11:24:20;26.13;;;16.87;;
15936;SDS011;9163;48.818;8.976;2022-12-18T11:26:53;25.20;;;16.87;;
15936;SDS011;9163;48.818;8.976;2022-12-18T11:29:24;24.93;;;17.20;;
15936;SDS011;9163;48.818;8.976;2022-12-18T11:32:13;24.70;;;16.73;;
15936;SDS011;9163;48.818;8.976;2022-12-18T11:34:58;27.33;;;16.50;;
15936;SDS011;9163;48.818;8.976;2022-12-18T11:37:29;25.10;;;16.70;;
15936;SDS011;9163;48.818;8.976;2022-12-18T11:39:59;25.20;;;16.57;;
15936;SDS011;9163;48.818;8.976;2022-12-18T11:42:32;28.43;;;17.47;;
15936;SDS011;9163;48.818;8.976;2022-12-18T11:45:20;27.07;;;17.47;;
15936;SDS011;9163;48.818;8.976;2022-12-18T11:47:58;28.87;;;17.93;;
15936;SDS011;9163;48.818;8.976;2022-12-18T11:50:31;25.73;;;16.90;;
15936;SDS011;9163;48.818;8.976;2022-12-18T11:53:09;26.43;;;17.37;;
15936;SDS011;9163;48.818;8.976;2022-12-18T11:55:39;25.97;;;17.63;;
15936;SDS011;9163;48.818;8.976;2022-12-18T11:58:15;25.63;;;17.77;;
15936;SDS011;9163;48.818;8.976;2022-12-18T12:00:55;23.27;;;16.80;;
15936;SDS011;9163;48.818;8.976;2022-12-18T12:03:40;24.43;;;16.30;;
15936;SDS011;9163;48.818;8.976;2022-12-18T12:06:23;27.43;;;17.83;;
15936;SDS011;9163;48.818;8.976;2022-12-18T12:09:02;27.37;;;17.50;;
15936;SDS011;9163;48.818;8.976;2022-12-18T12:11:38;26.07;;;17.10;;
15936;SDS011;9163;48.818;8.976;2022-12-18T12:14:21;25.77;;;16.50;;
15936;SDS011;9163;48.818;8.976;2022-12-18T12:17:02;27.90;;;17.07;;
15936;SDS011;9163;48.818;8.976;2022-12-18T12:19:38;26.93;;;16.17;;
15936;SDS011;9163;48.818;8.976;2022-12-18T12:22:13;27.03;;;16.73;;
15936;SDS011;9163;48.818;8.976;2022-12-18T12:24:52;28.30;;;17.60;;
15936;SDS011;9163;48.818;8.976;2022-12-18T12:27:30;28.97;;;17.23;;
15936;SDS011;9163;48.818;8.976;2022-12-18T12:30:07;26.40;;;16.17;;
15936;SDS011;9163;48.818;8.976;2022-12-18T12:32:42;29.63;;;16.77;;
15936;SDS011;9163;48.818;8.976;2022-12-18T12:35:24;27.20;;;15.63;;
15936;SDS011;9163;48.818;8.976;2022-12-18T12:38:01;30.77;;;17.90;;
15936;SDS011;9163;48.818;8.976;2022-12-18T12:40:33;30.20;;;17.50;;
15936;SDS011;9163;48.818;8.976;2022-12-18T12:43:03;28.33;;;16.33;;
15936;SDS011;9163;48.818;8.976;2022-12-18T12:45:39;31.40;;;17.30;;
15936;SDS011;9163;48.818;8.976;2022-12-18T12:48:14;33.77;;;19.20;;
15936;SDS011;9163;48.818;8.976;2022-12-18T12:50:44;29.00;;;17.20;;
15936;SDS011;9163;48.818;8.976;2022-12-18T12:53:21;30.23;;;17.90;;
15936;SDS011;9163;48.818;8.976;2022-12-18T12:55:51;33.67;;;18.63;;
15936;SDS011;9163;48.818;8.976;2022-12-18T12:58:23;31.97;;;18.93;;
15936;SDS011;9163;48.818;8.976;2022-12-18T13:01:00;30.27;;;18.37;;
15936;SDS011;9163;48.818;8.976;2022-12-18T13:03:41;28.67;;;17.23;;
15936;SDS011;9163;48.818;8.976;2022-12-18T13:06:16;29.10;;;17.37;;
15936;SDS011;9163;48.818;8.976;2022-12-18T13:08:53;28.50;;;17.23;;
15936;SDS011;9163;48.818;8.976;2022-12-18T13:11:38;27.57;;;17.47;;
15936;SDS011;9163;48.818;8.976;2022-12-18T13:14:25;28.57;;;17.43;;
15936;SDS011;9163;48.818;8.976;2022-12-18T13:22:59;30.87;;;18.30;;
15936;SDS011;9163;48.818;8.976;2022-12-18T13:25:27;29.40;;;17.67;;
15936;SDS011;9163;48.818;8.976;2022-12-18T13:28:03;31.73;;;18.07;;
15936;SDS011;9163;48.818;8.976;2022-12-18T13:30:42;31.30;;;18.63;;
15936;SDS011;9163;48.818;8.976;2022-12-18T13:36:13;33.33;;;19.23;;
15936;SDS011;9163;48.818;8.976;2022-12-18T13:39:09;32.67;;;19.03;;
15936;SDS011;9163;48.818;8.976;2022-12-18T13:41:38;35.30;;;19.03;;
15936;SDS011;9163;48.818;8.976;2022-12-18T13:44:10;35.57;;;19.70;;
15936;SDS011;9163;48.818;8.976;2022-12-18T13:46:42;36.03;;;19.07;;
15936;SDS011;9163;48.818;8.976;2022-12-18T13:49:17;35.23;;;20.43;;
15936;SDS011;9163;48.818;8.976;2022-12-18T13:51:50;36.50;;;19.53;;
15936;SDS011;9163;48.818;8.976;2022-12-18T13:54:20;38.10;;;20.13;;
15936;SDS011;9163;48.818;8.976;2022-12-18T13:56:54;35.47;;;18.50;;
15936;SDS011;9163;48.818;8.976;2022-12-18T13:59:22;34.10;;;18.73;;
15936;SDS011;9163;48.818;8.976;2022-12-18T14:01:51;35.93;;;18.90;;
15936;SDS011;9163;48.818;8.976;2022-12-18T14:04:21;35.17;;;18.97;;
15936;SDS011;9163;48.818;8.976;2022-12-18T14:06:53;36.83;;;18.90;;
15936;SDS011;9163;48.818;8.976;2022-12-18T14:09:25;34.57;;;18.33;;
15936;SDS011;9163;48.818;8.976;2022-12-18T14:11:54;41.20;;;19.53;;
15936;SDS011;9163;48.818;8.976;2022-12-18T14:14:44;37.33;;;19.50;;
15936;SDS011;9163;48.818;8.976;2022-12-18T14:17:13;35.57;;;19.80;;
15936;SDS011;9163;48.818;8.976;2022-12-18T14:19:43;41.30;;;21.53;;
15936;SDS011;9163;48.818;8.976;2022-12-18T14:22:15;41.80;;;21.60;;
15936;SDS011;9163;48.818;8.976;2022-12-18T14:24:45;40.83;;;21.90;;
15936;SDS011;9163;48.818;8.976;2022-12-18T14:27:21;43.07;;;22.30;;
15936;SDS011;9163;48.818;8.976;2022-12-18T14:29:49;39.53;;;20.93;;
15936;SDS011;9163;48.818;8.976;2022-12-18T14:32:17;41.80;;;21.23;;
15936;SDS011;9163;48.818;8.976;2022-12-18T14:34:46;41.07;;;22.00;;
15936;SDS011;9163;48.818;8.976;2022-12-18T14:37:17;41.07;;;22.30;;
15936;SDS011;9163;48.818;8.976;2022-12-18T14:39:57;45.93;;;22.53;;
15936;SDS011;9163;48.818;8.976;2022-12-18T14:42:25;46.83;;;24.43;;
15936;SDS011;9163;48.818;8.976;2022-12-18T14:47:57;46.77;;;23.87;;
15936;SDS011;9163;48.818;8.976;2022-12-18T14:50:25;46.20;;;24.27;;
15936;SDS011;9163;48.818;8.976;2022-12-18T14:52:54;44.93;;;22.27;;
15936;SDS011;9163;48.818;8.976;2022-12-18T14:55:21;47.50;;;23.17;;
15936;SDS011;9163;48.818;8.976;2022-12-18T14:57:49;47.20;;;24.23;;
15936;SDS011;9163;48.818;8.976;2022-12-18T15:00:19;45.93;;;23.10;;
15936;SDS011;9163;48.818;8.976;2022-12-18T15:02:49;45.63;;;23.13;;
15936;SDS011;9163;48.818;8.976;2022-12-18T15:05:19;47.60;;;23.97;;
15936;SDS011;9163;48.818;8.976;2022-12-18T15:07:51;44.03;;;24.03;;